sensor_id;sensor_type;location;lat;lon;timestamp;pressure;altitude;pressure_sealevel;temperature;humidity
49341;BME280;35209;51.050;13.678;2023-08-01T00:00:19;153420.81;;;18.79;84.15
49341;BME280;35209;51.050;13.678;2023-08-01T00:05:22;153397.44;;;18.70;85.62
49341;BME280;35209;51.050;13.678;2023-08-01T00:10:24;153376.63;;;18.62;85.32
49341;BME280;35209;51.050;13.678;2023-08-01T00:15:25;153351.94;;;18.52;88.65
49341;BME280;35209;51.050;13.678;2023-08-01T00:20:27;153341.56;;;18.48;88.19
49341;BME280;35209;51.050;13.678;2023-08-01T00:25:29;153340.25;;;18.48;89.11
49341;BME280;35209;51.050;13.678;2023-08-01T00:30:30;153345.44;;;18.50;88.80
49341;BME280;35209;51.050;13.678;2023-08-01T00:35:32;153316.91;;;18.38;91.52
49341;BME280;35209;51.050;13.678;2023-08-01T00:40:34;153287.00;;;18.27;92.51
49341;BME280;35209;51.050;13.678;2023-08-01T00:45:36;153251.97;;;18.13;93.08
49341;BME280;35209;51.050;13.678;2023-08-01T00:50:39;153336.38;;;18.46;89.49
49341;BME280;35209;51.050;13.678;2023-08-01T00:55:41;153316.91;;;18.38;88.90
49341;BME280;35209;51.050;13.678;2023-08-01T01:00:43;153318.19;;;18.39;87.72
49341;BME280;35209;51.050;13.678;2023-08-01T01:06:09;153350.66;;;18.52;84.99
49341;BME280;35209;51.050;13.678;2023-08-01T01:11:13;153374.03;;;18.61;83.28
49341;BME280;35209;51.050;13.678;2023-08-01T01:16:15;153437.72;;;18.86;80.27
49341;BME280;35209;51.050;13.678;2023-08-01T01:21:17;153452.00;;;18.92;79.03
49341;BME280;35209;51.050;13.678;2023-08-01T01:26:19;153450.72;;;18.91;78.29
49341;BME280;35209;51.050;13.678;2023-08-01T01:31:23;153471.50;;;18.99;78.49
49341;BME280;35209;51.050;13.678;2023-08-01T01:36:25;153492.25;;;19.07;76.50
49341;BME280;35209;51.050;13.678;2023-08-01T01:41:26;153522.13;;;19.19;73.63
49341;BME280;35209;51.050;13.678;2023-08-01T01:46:28;153544.22;;;19.28;73.46
49341;BME280;35209;51.050;13.678;2023-08-01T01:51:30;153518.25;;;19.18;74.64
49341;BME280;35209;51.050;13.678;2023-08-01T01:56:32;153493.53;;;19.08;78.36
49341;BME280;35209;51.050;13.678;2023-08-01T02:01:35;153435.09;;;18.85;80.76
49341;BME280;35209;51.050;13.678;2023-08-01T02:06:37;153344.16;;;18.49;86.02
49341;BME280;35209;51.050;13.678;2023-08-01T02:11:40;153281.84;;;18.25;91.57
49341;BME280;35209;51.050;13.678;2023-08-01T02:16:42;153201.38;;;17.93;96.27
49341;BME280;35209;51.050;13.678;2023-08-01T02:21:44;153152.00;;;17.74;100.00
49341;BME280;35209;51.050;13.678;2023-08-01T02:26:45;153123.44;;;17.62;100.00
49341;BME280;35209;51.050;13.678;2023-08-01T02:31:47;153096.16;;;17.52;100.00
49341;BME280;35209;51.050;13.678;2023-08-01T02:36:49;153072.81;;;17.43;100.00
49341;BME280;35209;51.050;13.678;2023-08-01T02:41:51;153063.72;;;17.39;100.00
49341;BME280;35209;51.050;13.678;2023-08-01T02:46:52;153054.66;;;17.35;100.00
49341;BME280;35209;51.050;13.678;2023-08-01T02:51:54;153058.53;;;17.37;100.00
49341;BME280;35209;51.050;13.678;2023-08-01T02:56:56;153068.94;;;17.41;100.00
49341;BME280;35209;51.050;13.678;2023-08-01T03:01:58;153048.16;;;17.33;100.00
49341;BME280;35209;51.050;13.678;2023-08-01T03:06:59;153049.44;;;17.33;100.00
49341;BME280;35209;51.050;13.678;2023-08-01T03:12:01;153026.09;;;17.24;100.00
49341;BME280;35209;51.050;13.678;2023-08-01T03:17:03;153013.13;;;17.19;100.00
49341;BME280;35209;51.050;13.678;2023-08-01T03:22:05;153011.84;;;17.19;100.00
49341;BME280;35209;51.050;13.678;2023-08-01T03:27:07;153020.94;;;17.22;100.00
49341;BME280;35209;51.050;13.678;2023-08-01T03:32:08;153028.69;;;17.25;100.00
49341;BME280;35209;51.050;13.678;2023-08-01T03:37:10;153035.19;;;17.28;100.00
49341;BME280;35209;51.050;13.678;2023-08-01T03:42:13;153017.00;;;17.21;100.00
49341;BME280;35209;51.050;13.678;2023-08-01T03:47:14;153009.22;;;17.18;100.00
49341;BME280;35209;51.050;13.678;2023-08-01T03:52:16;152988.50;;;17.09;100.00
49341;BME280;35209;51.050;13.678;2023-08-01T03:57:18;152988.50;;;17.09;100.00
49341;BME280;35209;51.050;13.678;2023-08-01T04:02:19;152982.00;;;17.07;100.00
49341;BME280;35209;51.050;13.678;2023-08-01T04:07:21;152984.56;;;17.08;100.00
49341;BME280;35209;51.050;13.678;2023-08-01T04:12:23;153007.91;;;17.17;100.00
49341;BME280;35209;51.050;13.678;2023-08-01T04:17:25;153022.22;;;17.23;100.00
49341;BME280;35209;51.050;13.678;2023-08-01T04:22:26;153006.63;;;17.17;100.00
49341;BME280;35209;51.050;13.678;2023-08-01T04:27:28;153042.94;;;17.31;100.00
49341;BME280;35209;51.050;13.678;2023-08-01T04:32:33;153027.41;;;17.25;100.00
49341;BME280;35209;51.050;13.678;2023-08-01T04:37:35;153061.13;;;17.38;100.00
49341;BME280;35209;51.050;13.678;2023-08-01T04:42:37;153074.09;;;17.43;100.00
49341;BME280;35209;51.050;13.678;2023-08-01T04:47:38;153102.66;;;17.54;100.00
49341;BME280;35209;51.050;13.678;2023-08-01T04:52:40;153166.28;;;17.79;100.00
49341;BME280;35209;51.050;13.678;2023-08-01T04:57:42;153202.66;;;17.94;100.00
49341;BME280;35209;51.050;13.678;2023-08-01T05:02:44;153239.00;;;18.08;100.00
49341;BME280;35209;51.050;13.678;2023-08-01T05:07:46;153241.56;;;18.09;100.00
49341;BME280;35209;51.050;13.678;2023-08-01T05:12:48;153231.19;;;18.05;100.00
49341;BME280;35209;51.050;13.678;2023-08-01T05:17:49;153227.31;;;18.03;100.00
49341;BME280;35209;51.050;13.678;2023-08-01T05:22:51;153168.91;;;17.80;100.00
49341;BME280;35209;51.050;13.678;2023-08-01T05:27:56;153172.78;;;17.82;100.00
49341;BME280;35209;51.050;13.678;2023-08-01T05:32:58;153181.88;;;17.85;100.00
49341;BME280;35209;51.050;13.678;2023-08-01T05:37:59;153152.00;;;17.74;100.00
49341;BME280;35209;51.050;13.678;2023-08-01T05:43:01;153145.50;;;17.71;100.00
49341;BME280;35209;51.050;13.678;2023-08-01T05:48:05;153146.78;;;17.72;100.00
49341;BME280;35209;51.050;13.678;2023-08-01T05:53:07;153176.66;;;17.83;100.00
49341;BME280;35209;51.050;13.678;2023-08-01T05:58:09;153207.81;;;17.96;100.00
49341;BME280;35209;51.050;13.678;2023-08-01T06:03:11;153248.09;;;18.11;100.00
49341;BME280;35209;51.050;13.678;2023-08-01T06:08:13;153297.41;;;18.31;100.00
49341;BME280;35209;51.050;13.678;2023-08-01T06:13:16;153337.69;;;18.47;100.00
49341;BME280;35209;51.050;13.678;2023-08-01T06:18:18;153388.28;;;18.66;100.00
49341;BME280;35209;51.050;13.678;2023-08-01T06:23:20;153407.84;;;18.74;100.00
49341;BME280;35209;51.050;13.678;2023-08-01T06:28:21;153415.66;;;18.77;100.00
49341;BME280;35209;51.050;13.678;2023-08-01T06:33:23;153402.63;;;18.72;100.00
49341;BME280;35209;51.050;13.678;2023-08-01T06:38:25;153362.34;;;18.56;100.00
49341;BME280;35209;51.050;13.678;2023-08-01T06:43:26;153335.03;;;18.46;100.00
49341;BME280;35209;51.050;13.678;2023-08-01T06:48:28;153302.63;;;18.33;100.00
49341;BME280;35209;51.050;13.678;2023-08-01T06:53:31;153254.56;;;18.14;100.00
49341;BME280;35209;51.050;13.678;2023-08-01T06:58:33;153246.81;;;18.11;100.00
49341;BME280;35209;51.050;13.678;2023-08-01T07:03:35;153307.78;;;18.35;100.00
49341;BME280;35209;51.050;13.678;2023-08-01T07:08:36;153287.00;;;18.27;100.00
49341;BME280;35209;51.050;13.678;2023-08-01T07:13:38;153327.28;;;18.43;100.00
49341;BME280;35209;51.050;13.678;2023-08-01T07:18:40;153341.56;;;18.48;100.00
49341;BME280;35209;51.050;13.678;2023-08-01T07:23:42;153366.22;;;18.58;100.00
49341;BME280;35209;51.050;13.678;2023-08-01T07:28:43;153475.38;;;19.01;100.00
49341;BME280;35209;51.050;13.678;2023-08-01T07:33:45;153516.97;;;19.17;100.00
49341;BME280;35209;51.050;13.678;2023-08-01T07:38:47;153515.63;;;19.16;100.00
49341;BME280;35209;51.050;13.678;2023-08-01T07:43:48;153505.28;;;19.12;100.00
49341;BME280;35209;51.050;13.678;2023-08-01T07:48:50;153493.53;;;19.08;100.00
49341;BME280;35209;51.050;13.678;2023-08-01T07:53:55;153500.06;;;19.10;100.00
49341;BME280;35209;51.050;13.678;2023-08-01T07:58:57;153548.09;;;19.29;100.00
49341;BME280;35209;51.050;13.678;2023-08-01T08:03:58;153610.50;;;19.54;100.00
49341;BME280;35209;51.050;13.678;2023-08-01T08:09:03;153639.13;;;19.65;99.45
49341;BME280;35209;51.050;13.678;2023-08-01T08:14:05;153611.78;;;19.54;95.38
49341;BME280;35209;51.050;13.678;2023-08-01T08:19:07;153622.19;;;19.58;93.67
49341;BME280;35209;51.050;13.678;2023-08-01T08:24:09;153678.13;;;19.80;93.19
49341;BME280;35209;51.050;13.678;2023-08-01T08:29:11;153704.09;;;19.90;91.63
49341;BME280;35209;51.050;13.678;2023-08-01T08:34:12;153695.00;;;19.87;92.18
49341;BME280;35209;51.050;13.678;2023-08-01T08:39:14;153695.00;;;19.87;93.91
49341;BME280;35209;51.050;13.678;2023-08-01T08:44:17;153678.13;;;19.80;91.95
49341;BME280;35209;51.050;13.678;2023-08-01T08:49:20;153672.91;;;19.78;90.42
49341;BME280;35209;51.050;13.678;2023-08-01T08:54:23;153645.63;;;19.68;93.22
49341;BME280;35209;51.050;13.678;2023-08-01T08:59:26;153640.41;;;19.65;92.94
49341;BME280;35209;51.050;13.678;2023-08-01T09:04:30;153657.31;;;19.72;91.90
49341;BME280;35209;51.050;13.678;2023-08-01T09:09:32;153659.91;;;19.73;90.58
49341;BME280;35209;51.050;13.678;2023-08-01T09:14:34;153662.50;;;19.74;91.75
49341;BME280;35209;51.050;13.678;2023-08-01T09:19:36;153630.06;;;19.61;92.09
49341;BME280;35209;51.050;13.678;2023-08-01T09:24:38;153557.22;;;19.33;93.26
49341;BME280;35209;51.050;13.678;2023-08-01T09:29:40;153522.13;;;19.19;97.01
49341;BME280;35209;51.050;13.678;2023-08-01T09:34:42;153503.94;;;19.12;93.98
49341;BME280;35209;51.050;13.678;2023-08-01T09:39:53;153532.53;;;19.23;92.48
49341;BME280;35209;51.050;13.678;2023-08-01T09:44:55;153580.59;;;19.42;90.31
49341;BME280;35209;51.050;13.678;2023-08-01T09:49:57;153659.91;;;19.73;87.68
49341;BME280;35209;51.050;13.678;2023-08-01T09:54:58;153714.50;;;19.95;85.51
49341;BME280;35209;51.050;13.678;2023-08-01T10:00:00;153740.50;;;20.05;82.31
49341;BME280;35209;51.050;13.678;2023-08-01T10:05:12;153750.91;;;20.09;82.27
49341;BME280;35209;51.050;13.678;2023-08-01T10:10:15;153765.22;;;20.14;81.02
49341;BME280;35209;51.050;13.678;2023-08-01T10:15:17;153778.22;;;20.20;78.17
49341;BME280;35209;51.050;13.678;2023-08-01T10:20:21;153818.50;;;20.35;76.97
49341;BME280;35209;51.050;13.678;2023-08-01T10:25:23;153838.00;;;20.43;74.08
49341;BME280;35209;51.050;13.678;2023-08-01T10:30:26;153904.38;;;20.69;74.45
49341;BME280;35209;51.050;13.678;2023-08-01T10:35:39;153973.31;;;20.96;73.23
49341;BME280;35209;51.050;13.678;2023-08-01T10:40:42;154016.25;;;21.13;69.56
49341;BME280;35209;51.050;13.678;2023-08-01T10:45:44;154090.41;;;21.42;66.52
49341;BME280;35209;51.050;13.678;2023-08-01T10:50:54;154151.59;;;21.66;66.84
49341;BME280;35209;51.050;13.678;2023-08-01T10:55:58;154155.47;;;21.67;63.66
49341;BME280;35209;51.050;13.678;2023-08-01T11:01:00;154227.03;;;21.96;63.56
49341;BME280;35209;51.050;13.678;2023-08-01T11:06:01;154228.38;;;21.96;64.75
49341;BME280;35209;51.050;13.678;2023-08-01T11:11:08;154257.00;;;22.07;61.60
49341;BME280;35209;51.050;13.678;2023-08-01T11:16:15;154319.53;;;22.32;61.22
49341;BME280;35209;51.050;13.678;2023-08-01T11:21:27;154283.06;;;22.17;59.58
49341;BME280;35209;51.050;13.678;2023-08-01T11:26:29;154353.41;;;22.45;61.19
49341;BME280;35209;51.050;13.678;2023-08-01T11:31:30;154447.13;;;22.82;59.50
49341;BME280;35209;51.050;13.678;2023-08-01T11:36:33;154371.59;;;22.52;58.52
49341;BME280;35209;51.050;13.678;2023-08-01T11:41:35;154332.56;;;22.37;58.87
49341;BME280;35209;51.050;13.678;2023-08-01T11:46:38;154318.25;;;22.31;60.11
49341;BME280;35209;51.050;13.678;2023-08-01T11:51:42;154300.00;;;22.24;60.24
49341;BME280;35209;51.050;13.678;2023-08-01T11:56:44;154270.06;;;22.12;60.51
49341;BME280;35209;51.050;13.678;2023-08-01T12:01:46;154216.69;;;21.91;61.68
49341;BME280;35209;51.050;13.678;2023-08-01T12:06:48;154125.53;;;21.56;65.08
49341;BME280;35209;51.050;13.678;2023-08-01T12:11:58;153657.31;;;19.72;82.64
49341;BME280;35209;51.050;13.678;2023-08-01T12:17:01;153287.00;;;18.27;97.24
49341;BME280;35209;51.050;13.678;2023-08-01T12:22:03;153148.09;;;17.72;100.00
49341;BME280;35209;51.050;13.678;2023-08-01T12:27:08;153115.63;;;17.59;100.00
49341;BME280;35209;51.050;13.678;2023-08-01T12:32:10;153115.63;;;17.59;100.00
49341;BME280;35209;51.050;13.678;2023-08-01T12:37:12;153126.03;;;17.63;100.00
49341;BME280;35209;51.050;13.678;2023-08-01T12:42:14;153144.16;;;17.71;100.00
49341;BME280;35209;51.050;13.678;2023-08-01T12:47:59;153161.09;;;17.77;100.00
49341;BME280;35209;51.050;13.678;2023-08-01T12:54:37;153162.41;;;17.78;100.00
49341;BME280;35209;51.050;13.678;2023-08-01T13:05:37;153245.44;;;18.10;100.00
49341;BME280;35209;51.050;13.678;2023-08-01T13:10:39;153383.13;;;18.64;100.00
49341;BME280;35209;51.050;13.678;2023-08-01T13:15:41;153498.75;;;19.10;100.00
49341;BME280;35209;51.050;13.678;2023-08-01T13:20:43;153506.56;;;19.13;100.00
49341;BME280;35209;51.050;13.678;2023-08-01T13:25:50;153563.72;;;19.35;100.00
49341;BME280;35209;51.050;13.678;2023-08-01T13:31:09;153691.13;;;19.85;100.00
49341;BME280;35209;51.050;13.678;2023-08-01T13:36:10;153769.13;;;20.16;100.00
49341;BME280;35209;51.050;13.678;2023-08-01T13:41:14;153750.91;;;20.09;90.77
49341;BME280;35209;51.050;13.678;2023-08-01T13:46:17;153762.59;;;20.13;90.42
49341;BME280;35209;51.050;13.678;2023-08-01T13:51:33;153800.31;;;20.28;93.13
49341;BME280;35209;51.050;13.678;2023-08-01T13:56:35;153874.47;;;20.57;87.44
49341;BME280;35209;51.050;13.678;2023-08-01T14:01:40;153840.59;;;20.44;86.48
49341;BME280;35209;51.050;13.678;2023-08-01T14:06:42;153786.00;;;20.23;84.26
49341;BME280;35209;51.050;13.678;2023-08-01T14:11:51;153767.81;;;20.15;84.97
49341;BME280;35209;51.050;13.678;2023-08-01T14:16:56;153802.91;;;20.29;83.89
49341;BME280;35209;51.050;13.678;2023-08-01T14:21:58;153788.63;;;20.24;80.25
49341;BME280;35209;51.050;13.678;2023-08-01T14:27:00;153814.59;;;20.34;85.95
49341;BME280;35209;51.050;13.678;2023-08-01T14:32:02;153905.69;;;20.70;79.27
49341;BME280;35209;51.050;13.678;2023-08-01T14:37:04;153899.16;;;20.67;77.68
49341;BME280;35209;51.050;13.678;2023-08-01T14:42:06;153956.41;;;20.89;77.87
49341;BME280;35209;51.050;13.678;2023-08-01T14:47:08;153966.78;;;20.94;77.07
49341;BME280;35209;51.050;13.678;2023-08-01T14:52:10;154020.13;;;21.14;79.15
49341;BME280;35209;51.050;13.678;2023-08-01T14:57:11;154021.41;;;21.15;72.59
49341;BME280;35209;51.050;13.678;2023-08-01T15:02:14;154061.78;;;21.31;70.64
49341;BME280;35209;51.050;13.678;2023-08-01T15:07:16;154037.06;;;21.21;69.31
49341;BME280;35209;51.050;13.678;2023-08-01T15:12:19;154141.19;;;21.62;72.90
49341;BME280;35209;51.050;13.678;2023-08-01T15:17:28;154160.72;;;21.70;69.18
49341;BME280;35209;51.050;13.678;2023-08-01T15:22:29;154069.63;;;21.34;65.50
49341;BME280;35209;51.050;13.678;2023-08-01T15:27:31;154014.94;;;21.12;69.52
49341;BME280;35209;51.050;13.678;2023-08-01T15:32:33;153974.59;;;20.97;69.34
49341;BME280;35209;51.050;13.678;2023-08-01T15:37:35;153908.28;;;20.71;68.76
49341;BME280;35209;51.050;13.678;2023-08-01T15:42:37;153918.69;;;20.75;65.74
49341;BME280;35209;51.050;13.678;2023-08-01T15:47:38;153914.78;;;20.73;67.81
49341;BME280;35209;51.050;13.678;2023-08-01T15:52:40;153946.00;;;20.85;66.33
49341;BME280;35209;51.050;13.678;2023-08-01T15:57:42;153960.31;;;20.91;68.67
49341;BME280;35209;51.050;13.678;2023-08-01T16:02:45;154089.13;;;21.41;62.20
49341;BME280;35209;51.050;13.678;2023-08-01T16:07:47;154056.53;;;21.29;56.63
49341;BME280;35209;51.050;13.678;2023-08-01T16:12:49;154059.19;;;21.30;56.43
49341;BME280;35209;51.050;13.678;2023-08-01T16:17:54;154124.25;;;21.55;55.99
49341;BME280;35209;51.050;13.678;2023-08-01T16:22:56;154181.50;;;21.78;55.35
49341;BME280;35209;51.050;13.678;2023-08-01T16:28:01;154145.06;;;21.63;55.92
49341;BME280;35209;51.050;13.678;2023-08-01T16:33:03;154126.88;;;21.56;53.71
49341;BME280;35209;51.050;13.678;2023-08-01T16:38:06;154076.13;;;21.36;50.95
49341;BME280;35209;51.050;13.678;2023-08-01T16:43:10;153982.41;;;21.00;52.43
49341;BME280;35209;51.050;13.678;2023-08-01T16:49:12;153960.31;;;20.91;53.93
49341;BME280;35209;51.050;13.678;2023-08-01T16:54:26;153935.59;;;20.81;53.54
49341;BME280;35209;51.050;13.678;2023-08-01T16:59:29;153909.56;;;20.71;53.41
49341;BME280;35209;51.050;13.678;2023-08-01T17:04:31;153913.50;;;20.73;54.82
49341;BME280;35209;51.050;13.678;2023-08-01T17:09:34;153843.19;;;20.45;58.17
49341;BME280;35209;51.050;13.678;2023-08-01T17:14:36;153906.97;;;20.70;57.01
49341;BME280;35209;51.050;13.678;2023-08-01T17:19:38;153913.50;;;20.73;58.32
49341;BME280;35209;51.050;13.678;2023-08-01T17:24:39;153943.38;;;20.84;58.19
49341;BME280;35209;51.050;13.678;2023-08-01T17:29:41;153930.38;;;20.79;61.58
49341;BME280;35209;51.050;13.678;2023-08-01T17:34:45;153901.78;;;20.68;61.73
49341;BME280;35209;51.050;13.678;2023-08-01T17:39:47;153919.97;;;20.75;59.89
49341;BME280;35209;51.050;13.678;2023-08-01T17:44:49;153956.41;;;20.89;58.35
49341;BME280;35209;51.050;13.678;2023-08-01T17:49:51;153934.31;;;20.81;59.08
49341;BME280;35209;51.050;13.678;2023-08-01T17:54:54;153912.19;;;20.72;59.14
49341;BME280;35209;51.050;13.678;2023-08-01T17:59:58;153845.81;;;20.46;61.01
49341;BME280;35209;51.050;13.678;2023-08-01T18:05:00;153804.22;;;20.30;63.13
49341;BME280;35209;51.050;13.678;2023-08-01T18:10:02;153708.00;;;19.92;63.03
49341;BME280;35209;51.050;13.678;2023-08-01T18:15:05;153680.72;;;19.81;61.97
49341;BME280;35209;51.050;13.678;2023-08-01T18:26:39;153689.81;;;19.85;62.14
49341;BME280;35209;51.050;13.678;2023-08-01T18:46:54;153575.44;;;19.40;67.21
49341;BME280;35209;51.050;13.678;2023-08-01T18:51:56;153503.94;;;19.12;69.44
49341;BME280;35209;51.050;13.678;2023-08-01T18:56:58;153439.03;;;18.86;71.37
49341;BME280;35209;51.050;13.678;2023-08-01T19:02:01;153435.09;;;18.85;71.90
49341;BME280;35209;51.050;13.678;2023-08-01T19:07:03;153385.72;;;18.65;72.96
49341;BME280;35209;51.050;13.678;2023-08-01T19:12:06;153367.50;;;18.58;73.26
49341;BME280;35209;51.050;13.678;2023-08-01T19:17:08;153387.00;;;18.66;71.61
49341;BME280;35209;51.050;13.678;2023-08-01T19:22:12;153331.16;;;18.44;72.23
49341;BME280;35209;51.050;13.678;2023-08-01T19:27:14;153332.47;;;18.45;72.25
49341;BME280;35209;51.050;13.678;2023-08-01T19:32:16;153224.72;;;18.02;75.20
49341;BME280;35209;51.050;13.678;2023-08-01T19:37:19;153171.50;;;17.81;76.61
49341;BME280;35209;51.050;13.678;2023-08-01T19:42:20;153132.47;;;17.66;79.31
49341;BME280;35209;51.050;13.678;2023-08-01T19:47:22;153128.59;;;17.64;78.13
49341;BME280;35209;51.050;13.678;2023-08-01T19:52:25;153127.31;;;17.64;77.79
49341;BME280;35209;51.050;13.678;2023-08-01T19:57:31;153145.50;;;17.71;76.04
49341;BME280;35209;51.050;13.678;2023-08-01T20:02:34;153149.38;;;17.73;75.86
49341;BME280;35209;51.050;13.678;2023-08-01T20:07:41;153172.78;;;17.82;73.14
49341;BME280;35209;51.050;13.678;2023-08-01T20:12:43;153159.81;;;17.77;73.73
49341;BME280;35209;51.050;13.678;2023-08-01T20:17:46;153141.56;;;17.70;73.08
49341;BME280;35209;51.050;13.678;2023-08-01T20:22:48;153081.91;;;17.46;76.41
49341;BME280;35209;51.050;13.678;2023-08-01T20:27:53;153084.47;;;17.47;75.25
49341;BME280;35209;51.050;13.678;2023-08-01T20:32:55;153072.81;;;17.43;75.84
49341;BME280;35209;51.050;13.678;2023-08-01T20:37:57;153076.69;;;17.44;76.70
49341;BME280;35209;51.050;13.678;2023-08-01T20:42:59;153129.91;;;17.65;75.85
49341;BME280;35209;51.050;13.678;2023-08-01T20:48:01;153057.25;;;17.36;78.46
49341;BME280;35209;51.050;13.678;2023-08-01T20:53:11;153045.56;;;17.32;79.80
49341;BME280;35209;51.050;13.678;2023-08-01T20:58:12;153097.44;;;17.52;79.86
49341;BME280;35209;51.050;13.678;2023-08-01T21:03:15;153068.94;;;17.41;82.08
49341;BME280;35209;51.050;13.678;2023-08-01T21:08:17;153103.97;;;17.55;82.64
49341;BME280;35209;51.050;13.678;2023-08-01T21:13:18;153070.22;;;17.42;84.06
49341;BME280;35209;51.050;13.678;2023-08-01T21:18:20;153067.63;;;17.40;85.58
49341;BME280;35209;51.050;13.678;2023-08-01T21:23:22;153055.97;;;17.36;86.92
49341;BME280;35209;51.050;13.678;2023-08-01T21:28:24;153036.47;;;17.28;88.65
49341;BME280;35209;51.050;13.678;2023-08-01T21:33:26;152997.53;;;17.13;89.82
49341;BME280;35209;51.050;13.678;2023-08-01T21:38:28;153002.75;;;17.15;89.74
49341;BME280;35209;51.050;13.678;2023-08-01T21:43:30;153032.63;;;17.27;88.80
49341;BME280;35209;51.050;13.678;2023-08-01T21:48:36;153023.53;;;17.23;89.09
49341;BME280;35209;51.050;13.678;2023-08-01T21:53:37;152984.56;;;17.08;90.22
49341;BME280;35209;51.050;13.678;2023-08-01T21:58:39;153029.97;;;17.26;87.21
49341;BME280;35209;51.050;13.678;2023-08-01T22:03:41;153011.84;;;17.19;87.38
49341;BME280;35209;51.050;13.678;2023-08-01T22:08:44;153045.56;;;17.32;85.45
49341;BME280;35209;51.050;13.678;2023-08-01T22:13:46;153028.69;;;17.25;85.48
49341;BME280;35209;51.050;13.678;2023-08-01T22:18:53;153027.41;;;17.25;84.50
49341;BME280;35209;51.050;13.678;2023-08-01T22:23:55;153028.69;;;17.25;84.05
49341;BME280;35209;51.050;13.678;2023-08-01T22:28:59;153010.56;;;17.18;84.84
49341;BME280;35209;51.050;13.678;2023-08-01T22:34:04;152984.56;;;17.08;83.80
49341;BME280;35209;51.050;13.678;2023-08-01T22:39:15;152979.41;;;17.06;84.76
49341;BME280;35209;51.050;13.678;2023-08-01T22:44:17;152984.56;;;17.08;84.41
49341;BME280;35209;51.050;13.678;2023-08-01T22:49:19;152932.72;;;16.87;85.38
49341;BME280;35209;51.050;13.678;2023-08-01T22:54:27;152952.13;;;16.95;84.18
49341;BME280;35209;51.050;13.678;2023-08-01T22:59:31;153019.59;;;17.22;80.87
49341;BME280;35209;51.050;13.678;2023-08-01T23:04:36;153092.28;;;17.50;78.21
49341;BME280;35209;51.050;13.678;2023-08-01T23:09:42;153098.75;;;17.53;78.27
49341;BME280;35209;51.050;13.678;2023-08-01T23:14:44;153091.00;;;17.50;78.63
49341;BME280;35209;51.050;13.678;2023-08-01T23:19:46;153105.25;;;17.55;78.39
49341;BME280;35209;51.050;13.678;2023-08-01T23:24:49;153100.09;;;17.53;78.42
49341;BME280;35209;51.050;13.678;2023-08-01T23:29:54;153113.06;;;17.58;78.40
49341;BME280;35209;51.050;13.678;2023-08-01T23:35:02;153089.69;;;17.49;78.84
49341;BME280;35209;51.050;13.678;2023-08-01T23:40:08;153046.88;;;17.32;80.27
49341;BME280;35209;51.050;13.678;2023-08-01T23:45:11;153050.75;;;17.34;79.51
49341;BME280;35209;51.050;13.678;2023-08-01T23:50:13;153071.50;;;17.42;79.11
49341;BME280;35209;51.050;13.678;2023-08-01T23:55:16;153035.19;;;17.28;80.76
